Nearby METAR Reports


RPLC - Angeles/Pampanga, Philippines
Distance from station: S 166km
Updated: Wed, 13-Dec-2017 4:00am PHT
Mostly cloudy
Mostly cloudy
 Wind from WNW
Wind: WNW 11 km/h
Temperature: 25°C
Dew Point: 21°C
Humidity: 79%
Barometer: 1009 hPa
Clouds: Mostly cloudy
Visibility: 10 km
Cloud details: Few Clouds 610 m
Mostly cloudy 9144 m
2017/12/12 20:00 RPLC 122000Z 30006KT 9999 FEW020 BKN300 25/21 Q1009 NOSIG RMK A2980
RPLI - Laoag Intl Airport, Philippines
Distance from station: N 171km
Updated: Wed, 13-Dec-2017 2:00am PHT
NOT Current
Few Clouds
Few Clouds
 Wind from E
Wind: E 4 km/h
Temperature: 24°C
Dew Point: 20°C
Humidity: 78%
Barometer: 1008 hPa
Clouds: Few Clouds
Visibility: 10 km
Cloud details: Few Clouds 579 m
2017/12/12 18:00 RPLI 121800Z 08002KT 9999 FEW019 24/20 Q1008 NOSIG RMK A2977
 
RPLB - Olongapo/Subic, Philippines
Distance from station: S 205km
Updated: Wed, 13-Dec-2017 4:00am PHT
Mostly cloudy
Mostly cloudy
 Wind from NE
Wind: NE 11 km/h
Temperature: 26°C
Dew Point: 21°C
Humidity: 74%
Barometer: 1007 hPa
Clouds: Mostly cloudy
Visibility: 10 km
Cloud details: Mostly cloudy 610 m
2017/12/12 20:00 RPLB 122000Z 04006KT 9999 BKN020 26/21 Q1007 NOSIG RMK A2974
RPLL - Ninoy Aquino Intl Airport, Philippines
Distance from station: SSE 247km
Updated: Wed, 13-Dec-2017 4:00am PHT
Mostly cloudy
Mostly cloudy
 Wind from varies
Wind: varies 2 km/h
Temperature: 25°C
Dew Point: 25°C
Humidity: 100%
Barometer: 1008 hPa
Clouds: Mostly cloudy
Visibility: 10 km
Cloud details: Partly cloudy 701 m
Mostly cloudy 3048 m
2017/12/12 20:00 RPLL 122000Z VRB01KT 9999 SCT023 BKN100 25/25 Q1008 NOSIG RMK A2977